sensor_id;sensor_type;location;lat;lon;timestamp;P1;durP1;ratioP1;P2;durP2;ratioP2
63189;SDS011;49286;44.460;26.114;2022-09-09T00:01:08;13.90;;;5.35;;
63189;SDS011;49286;44.460;26.114;2022-09-09T00:03:54;7.40;;;5.00;;
63189;SDS011;49286;44.460;26.114;2022-09-09T00:06:44;9.27;;;5.05;;
63189;SDS011;49286;44.460;26.114;2022-09-09T00:09:21;7.47;;;5.37;;
63189;SDS011;49286;44.460;26.114;2022-09-09T00:17:43;7.28;;;5.55;;
63189;SDS011;49286;44.460;26.114;2022-09-09T00:22:54;6.30;;;4.93;;
63189;SDS011;49286;44.460;26.114;2022-09-09T00:28:26;14.57;;;5.97;;
63189;SDS011;49286;44.460;26.114;2022-09-09T00:30:56;12.85;;;5.45;;
63189;SDS011;49286;44.460;26.114;2022-09-09T00:33:26;11.98;;;5.97;;
63189;SDS011;49286;44.460;26.114;2022-09-09T00:35:56;7.75;;;5.88;;
63189;SDS011;49286;44.460;26.114;2022-09-09T00:38:24;7.90;;;5.22;;
63189;SDS011;49286;44.460;26.114;2022-09-09T00:40:56;8.00;;;5.63;;
63189;SDS011;49286;44.460;26.114;2022-09-09T00:43:28;16.08;;;5.85;;
63189;SDS011;49286;44.460;26.114;2022-09-09T00:54:05;8.23;;;5.70;;
63189;SDS011;49286;44.460;26.114;2022-09-09T00:56:57;12.27;;;6.65;;
63189;SDS011;49286;44.460;26.114;2022-09-09T00:59:43;7.32;;;5.88;;
63189;SDS011;49286;44.460;26.114;2022-09-09T01:02:28;10.30;;;6.32;;
63189;SDS011;49286;44.460;26.114;2022-09-09T01:05:20;8.27;;;6.45;;
63189;SDS011;49286;44.460;26.114;2022-09-09T01:07:54;13.15;;;11.43;;
63189;SDS011;49286;44.460;26.114;2022-09-09T01:10:41;11.75;;;10.38;;
63189;SDS011;49286;44.460;26.114;2022-09-09T01:13:24;14.05;;;11.68;;
63189;SDS011;49286;44.460;26.114;2022-09-09T01:15:51;14.68;;;11.27;;
63189;SDS011;49286;44.460;26.114;2022-09-09T01:18:22;16.10;;;11.55;;
63189;SDS011;49286;44.460;26.114;2022-09-09T01:26:21;18.88;;;11.10;;
63189;SDS011;49286;44.460;26.114;2022-09-09T01:28:49;17.60;;;11.07;;
63189;SDS011;49286;44.460;26.114;2022-09-09T01:31:19;21.75;;;11.23;;
63189;SDS011;49286;44.460;26.114;2022-09-09T01:33:47;16.88;;;11.15;;
63189;SDS011;49286;44.460;26.114;2022-09-09T01:36:24;13.25;;;11.25;;
63189;SDS011;49286;44.460;26.114;2022-09-09T01:39:00;16.30;;;10.55;;
63189;SDS011;49286;44.460;26.114;2022-09-09T01:41:26;15.85;;;9.82;;
63189;SDS011;49286;44.460;26.114;2022-09-09T01:43:52;24.38;;;10.82;;
63189;SDS011;49286;44.460;26.114;2022-09-09T01:46:21;11.95;;;10.32;;
63189;SDS011;49286;44.460;26.114;2022-09-09T01:48:48;32.65;;;11.48;;
63189;SDS011;49286;44.460;26.114;2022-09-09T01:51:15;16.33;;;10.07;;
63189;SDS011;49286;44.460;26.114;2022-09-09T01:53:40;14.27;;;10.13;;
63189;SDS011;49286;44.460;26.114;2022-09-09T01:56:20;20.33;;;11.70;;
63189;SDS011;49286;44.460;26.114;2022-09-09T02:06:56;25.30;;;10.73;;
63189;SDS011;49286;44.460;26.114;2022-09-09T02:09:22;22.95;;;11.48;;
63189;SDS011;49286;44.460;26.114;2022-09-09T02:11:49;17.70;;;10.13;;
63189;SDS011;49286;44.460;26.114;2022-09-09T02:14:22;17.08;;;10.73;;
63189;SDS011;49286;44.460;26.114;2022-09-09T02:17:11;25.17;;;12.07;;
63189;SDS011;49286;44.460;26.114;2022-09-09T02:19:44;22.55;;;11.25;;
63189;SDS011;49286;44.460;26.114;2022-09-09T02:22:15;15.73;;;10.43;;
63189;SDS011;49286;44.460;26.114;2022-09-09T02:24:44;14.18;;;9.57;;
63189;SDS011;49286;44.460;26.114;2022-09-09T02:27:11;13.00;;;9.23;;
63189;SDS011;49286;44.460;26.114;2022-09-09T02:29:41;18.98;;;11.13;;
63189;SDS011;49286;44.460;26.114;2022-09-09T02:32:11;25.27;;;9.57;;
63189;SDS011;49286;44.460;26.114;2022-09-09T02:34:48;24.30;;;10.00;;
63189;SDS011;49286;44.460;26.114;2022-09-09T02:37:17;12.70;;;9.90;;
63189;SDS011;49286;44.460;26.114;2022-09-09T02:39:46;18.83;;;11.27;;
63189;SDS011;49286;44.460;26.114;2022-09-09T02:42:12;17.02;;;11.88;;
63189;SDS011;49286;44.460;26.114;2022-09-09T02:44:39;14.27;;;11.38;;
63189;SDS011;49286;44.460;26.114;2022-09-09T02:53:13;15.77;;;9.85;;
63189;SDS011;49286;44.460;26.114;2022-09-09T02:55:47;14.60;;;10.20;;
63189;SDS011;49286;44.460;26.114;2022-09-09T02:58:18;18.60;;;9.70;;
63189;SDS011;49286;44.460;26.114;2022-09-09T03:00:48;12.98;;;8.95;;
63189;SDS011;49286;44.460;26.114;2022-09-09T03:03:15;12.63;;;8.52;;
63189;SDS011;49286;44.460;26.114;2022-09-09T03:05:42;16.23;;;10.13;;
63189;SDS011;49286;44.460;26.114;2022-09-09T03:08:08;10.43;;;8.85;;
63189;SDS011;49286;44.460;26.114;2022-09-09T03:10:34;16.70;;;9.98;;
63189;SDS011;49286;44.460;26.114;2022-09-09T03:13:00;12.52;;;9.18;;
63189;SDS011;49286;44.460;26.114;2022-09-09T03:15:26;19.70;;;11.05;;
63189;SDS011;49286;44.460;26.114;2022-09-09T03:17:55;13.63;;;10.43;;
63189;SDS011;49286;44.460;26.114;2022-09-09T03:20:22;13.00;;;10.13;;
63189;SDS011;49286;44.460;26.114;2022-09-09T03:22:48;13.93;;;10.63;;
63189;SDS011;49286;44.460;26.114;2022-09-09T03:25:13;15.50;;;10.68;;
63189;SDS011;49286;44.460;26.114;2022-09-09T03:27:39;20.85;;;10.02;;
63189;SDS011;49286;44.460;26.114;2022-09-09T03:30:05;20.65;;;10.63;;
63189;SDS011;49286;44.460;26.114;2022-09-09T03:32:31;17.23;;;8.82;;
63189;SDS011;49286;44.460;26.114;2022-09-09T03:34:56;17.63;;;10.15;;
63189;SDS011;49286;44.460;26.114;2022-09-09T03:37:22;14.40;;;10.20;;
63189;SDS011;49286;44.460;26.114;2022-09-09T03:39:48;13.35;;;11.10;;
63189;SDS011;49286;44.460;26.114;2022-09-09T03:42:14;15.55;;;10.02;;
63189;SDS011;49286;44.460;26.114;2022-09-09T03:44:43;20.02;;;10.45;;
63189;SDS011;49286;44.460;26.114;2022-09-09T03:47:12;17.45;;;10.27;;
63189;SDS011;49286;44.460;26.114;2022-09-09T03:49:45;14.00;;;9.38;;
63189;SDS011;49286;44.460;26.114;2022-09-09T03:52:10;13.00;;;11.03;;
63189;SDS011;49286;44.460;26.114;2022-09-09T03:54:36;19.65;;;11.10;;
63189;SDS011;49286;44.460;26.114;2022-09-09T03:57:02;12.40;;;10.23;;
63189;SDS011;49286;44.460;26.114;2022-09-09T03:59:29;14.30;;;11.15;;
63189;SDS011;49286;44.460;26.114;2022-09-09T04:01:55;19.95;;;12.30;;
63189;SDS011;49286;44.460;26.114;2022-09-09T04:04:22;16.33;;;11.35;;
63189;SDS011;49286;44.460;26.114;2022-09-09T04:06:47;20.63;;;11.50;;
63189;SDS011;49286;44.460;26.114;2022-09-09T04:09:13;15.73;;;10.77;;
63189;SDS011;49286;44.460;26.114;2022-09-09T04:11:39;13.88;;;10.27;;
63189;SDS011;49286;44.460;26.114;2022-09-09T04:14:05;15.50;;;10.73;;
63189;SDS011;49286;44.460;26.114;2022-09-09T04:16:32;29.13;;;10.68;;
63189;SDS011;49286;44.460;26.114;2022-09-09T04:18:58;21.88;;;11.90;;
63189;SDS011;49286;44.460;26.114;2022-09-09T04:21:25;27.80;;;10.38;;
63189;SDS011;49286;44.460;26.114;2022-09-09T04:23:51;16.67;;;8.52;;
63189;SDS011;49286;44.460;26.114;2022-09-09T04:26:17;16.95;;;11.35;;
63189;SDS011;49286;44.460;26.114;2022-09-09T04:28:43;15.55;;;10.68;;
63189;SDS011;49286;44.460;26.114;2022-09-09T04:31:16;18.33;;;10.52;;
63189;SDS011;49286;44.460;26.114;2022-09-09T04:33:48;15.45;;;11.55;;
63189;SDS011;49286;44.460;26.114;2022-09-09T04:36:14;12.75;;;11.45;;
63189;SDS011;49286;44.460;26.114;2022-09-09T04:38:40;17.42;;;11.32;;
63189;SDS011;49286;44.460;26.114;2022-09-09T04:41:05;20.50;;;10.75;;
63189;SDS011;49286;44.460;26.114;2022-09-09T04:43:32;21.02;;;11.63;;
63189;SDS011;49286;44.460;26.114;2022-09-09T04:45:58;26.42;;;11.90;;
63189;SDS011;49286;44.460;26.114;2022-09-09T04:48:26;16.05;;;10.23;;
63189;SDS011;49286;44.460;26.114;2022-09-09T04:53:25;19.70;;;11.48;;
63189;SDS011;49286;44.460;26.114;2022-09-09T04:56:04;24.50;;;11.30;;
63189;SDS011;49286;44.460;26.114;2022-09-09T04:58:35;22.88;;;12.65;;
63189;SDS011;49286;44.460;26.114;2022-09-09T05:03:37;22.42;;;11.95;;
63189;SDS011;49286;44.460;26.114;2022-09-09T05:06:10;15.30;;;11.85;;
63189;SDS011;49286;44.460;26.114;2022-09-09T05:08:44;19.63;;;11.35;;
63189;SDS011;49286;44.460;26.114;2022-09-09T05:11:16;23.52;;;12.70;;
63189;SDS011;49286;44.460;26.114;2022-09-09T05:13:45;17.23;;;10.75;;
63189;SDS011;49286;44.460;26.114;2022-09-09T05:16:10;18.20;;;10.40;;
63189;SDS011;49286;44.460;26.114;2022-09-09T05:18:39;17.67;;;9.25;;
63189;SDS011;49286;44.460;26.114;2022-09-09T05:21:06;19.55;;;10.65;;
63189;SDS011;49286;44.460;26.114;2022-09-09T05:23:33;22.70;;;11.73;;
63189;SDS011;49286;44.460;26.114;2022-09-09T05:25:59;13.48;;;8.45;;
63189;SDS011;49286;44.460;26.114;2022-09-09T05:28:25;12.02;;;7.85;;
63189;SDS011;49286;44.460;26.114;2022-09-09T05:30:58;13.73;;;6.88;;
63189;SDS011;49286;44.460;26.114;2022-09-09T05:33:25;29.27;;;8.50;;
63189;SDS011;49286;44.460;26.114;2022-09-09T05:35:58;29.70;;;11.93;;
63189;SDS011;49286;44.460;26.114;2022-09-09T05:38:31;13.55;;;8.55;;
63189;SDS011;49286;44.460;26.114;2022-09-09T05:40:58;16.15;;;6.65;;
63189;SDS011;49286;44.460;26.114;2022-09-09T05:43:24;12.52;;;6.60;;
63189;SDS011;49286;44.460;26.114;2022-09-09T05:46:06;20.27;;;6.90;;
63189;SDS011;49286;44.460;26.114;2022-09-09T05:48:34;18.80;;;7.10;;
63189;SDS011;49286;44.460;26.114;2022-09-09T05:51:02;14.93;;;7.10;;
63189;SDS011;49286;44.460;26.114;2022-09-09T05:53:28;10.05;;;6.50;;
63189;SDS011;49286;44.460;26.114;2022-09-09T05:56:06;14.45;;;7.18;;
63189;SDS011;49286;44.460;26.114;2022-09-09T05:58:36;18.30;;;7.15;;
63189;SDS011;49286;44.460;26.114;2022-09-09T06:01:09;22.10;;;7.35;;
63189;SDS011;49286;44.460;26.114;2022-09-09T06:03:37;14.75;;;6.38;;
63189;SDS011;49286;44.460;26.114;2022-09-09T06:06:04;11.00;;;6.47;;
63189;SDS011;49286;44.460;26.114;2022-09-09T06:08:32;11.48;;;5.45;;
63189;SDS011;49286;44.460;26.114;2022-09-09T06:11:02;7.60;;;4.95;;
63189;SDS011;49286;44.460;26.114;2022-09-09T06:13:30;16.73;;;5.78;;
63189;SDS011;49286;44.460;26.114;2022-09-09T06:15:55;9.35;;;5.43;;
63189;SDS011;49286;44.460;26.114;2022-09-09T06:18:21;13.93;;;5.03;;
63189;SDS011;49286;44.460;26.114;2022-09-09T06:20:53;12.55;;;4.50;;
63189;SDS011;49286;44.460;26.114;2022-09-09T06:23:20;8.63;;;5.18;;
63189;SDS011;49286;44.460;26.114;2022-09-09T06:25:46;21.60;;;5.07;;
63189;SDS011;49286;44.460;26.114;2022-09-09T06:28:11;25.52;;;5.18;;
63189;SDS011;49286;44.460;26.114;2022-09-09T06:30:38;53.40;;;7.90;;
63189;SDS011;49286;44.460;26.114;2022-09-09T06:33:05;7.03;;;4.22;;
63189;SDS011;49286;44.460;26.114;2022-09-09T06:35:30;12.07;;;5.05;;
63189;SDS011;49286;44.460;26.114;2022-09-09T06:37:55;8.52;;;4.28;;
63189;SDS011;49286;44.460;26.114;2022-09-09T06:40:24;9.23;;;4.18;;
63189;SDS011;49286;44.460;26.114;2022-09-09T06:42:50;12.50;;;3.85;;
63189;SDS011;49286;44.460;26.114;2022-09-09T06:45:15;8.50;;;4.57;;
63189;SDS011;49286;44.460;26.114;2022-09-09T06:47:42;9.10;;;3.83;;
63189;SDS011;49286;44.460;26.114;2022-09-09T06:50:08;6.07;;;3.50;;
63189;SDS011;49286;44.460;26.114;2022-09-09T06:52:33;9.18;;;3.92;;
63189;SDS011;49286;44.460;26.114;2022-09-09T06:54:59;10.15;;;4.35;;
63189;SDS011;49286;44.460;26.114;2022-09-09T06:57:24;7.70;;;4.03;;
63189;SDS011;49286;44.460;26.114;2022-09-09T06:59:50;12.13;;;4.28;;
63189;SDS011;49286;44.460;26.114;2022-09-09T07:02:15;10.48;;;4.53;;
63189;SDS011;49286;44.460;26.114;2022-09-09T07:04:41;10.65;;;4.75;;
63189;SDS011;49286;44.460;26.114;2022-09-09T07:07:06;8.68;;;4.65;;
63189;SDS011;49286;44.460;26.114;2022-09-09T07:09:33;9.20;;;4.65;;
63189;SDS011;49286;44.460;26.114;2022-09-09T07:11:58;11.40;;;5.35;;
63189;SDS011;49286;44.460;26.114;2022-09-09T07:14:24;8.65;;;3.50;;
63189;SDS011;49286;44.460;26.114;2022-09-09T07:16:50;12.52;;;4.80;;
63189;SDS011;49286;44.460;26.114;2022-09-09T07:19:15;11.15;;;4.55;;
63189;SDS011;49286;44.460;26.114;2022-09-09T07:21:41;13.57;;;4.53;;
63189;SDS011;49286;44.460;26.114;2022-09-09T07:24:07;10.85;;;4.45;;
63189;SDS011;49286;44.460;26.114;2022-09-09T07:26:35;11.15;;;4.93;;
63189;SDS011;49286;44.460;26.114;2022-09-09T07:29:02;10.82;;;4.38;;
63189;SDS011;49286;44.460;26.114;2022-09-09T07:31:32;11.32;;;5.07;;
63189;SDS011;49286;44.460;26.114;2022-09-09T07:34:01;9.15;;;5.03;;
63189;SDS011;49286;44.460;26.114;2022-09-09T07:36:31;18.35;;;4.55;;
63189;SDS011;49286;44.460;26.114;2022-09-09T07:39:19;6.13;;;3.92;;
63189;SDS011;49286;44.460;26.114;2022-09-09T07:41:45;8.13;;;4.20;;
63189;SDS011;49286;44.460;26.114;2022-09-09T07:44:13;8.30;;;4.18;;
63189;SDS011;49286;44.460;26.114;2022-09-09T07:46:43;9.57;;;5.13;;
63189;SDS011;49286;44.460;26.114;2022-09-09T07:49:11;9.15;;;4.28;;
63189;SDS011;49286;44.460;26.114;2022-09-09T07:51:38;11.50;;;3.63;;
63189;SDS011;49286;44.460;26.114;2022-09-09T07:54:07;11.10;;;5.63;;
63189;SDS011;49286;44.460;26.114;2022-09-09T07:56:34;9.73;;;4.95;;
63189;SDS011;49286;44.460;26.114;2022-09-09T07:59:01;10.52;;;4.35;;
63189;SDS011;49286;44.460;26.114;2022-09-09T08:01:28;8.20;;;5.22;;
63189;SDS011;49286;44.460;26.114;2022-09-09T08:04:02;11.93;;;5.55;;
63189;SDS011;49286;44.460;26.114;2022-09-09T08:06:31;16.67;;;4.55;;
63189;SDS011;49286;44.460;26.114;2022-09-09T08:08:58;5.57;;;4.45;;
63189;SDS011;49286;44.460;26.114;2022-09-09T08:11:25;9.35;;;5.25;;
63189;SDS011;49286;44.460;26.114;2022-09-09T08:13:52;9.13;;;4.35;;
63189;SDS011;49286;44.460;26.114;2022-09-09T08:16:19;6.40;;;4.38;;
63189;SDS011;49286;44.460;26.114;2022-09-09T08:18:47;12.88;;;5.85;;
63189;SDS011;49286;44.460;26.114;2022-09-09T08:21:18;11.20;;;4.60;;
63189;SDS011;49286;44.460;26.114;2022-09-09T08:23:46;11.18;;;6.07;;
63189;SDS011;49286;44.460;26.114;2022-09-09T08:28:49;7.38;;;5.15;;
63189;SDS011;49286;44.460;26.114;2022-09-09T08:31:18;15.30;;;5.25;;
63189;SDS011;49286;44.460;26.114;2022-09-09T08:33:56;11.00;;;5.80;;
63189;SDS011;49286;44.460;26.114;2022-09-09T08:36:25;15.30;;;5.47;;
63189;SDS011;49286;44.460;26.114;2022-09-09T08:38:53;18.08;;;5.63;;
63189;SDS011;49286;44.460;26.114;2022-09-09T08:44:00;13.85;;;5.70;;
63189;SDS011;49286;44.460;26.114;2022-09-09T08:47:18;14.02;;;5.57;;
63189;SDS011;49286;44.460;26.114;2022-09-09T08:52:25;9.70;;;6.32;;
63189;SDS011;49286;44.460;26.114;2022-09-09T08:54:52;30.73;;;6.50;;
63189;SDS011;49286;44.460;26.114;2022-09-09T08:57:25;13.80;;;4.88;;
63189;SDS011;49286;44.460;26.114;2022-09-09T08:59:52;12.97;;;5.77;;
63189;SDS011;49286;44.460;26.114;2022-09-09T09:10:56;19.83;;;6.07;;
63189;SDS011;49286;44.460;26.114;2022-09-09T09:16:25;16.98;;;4.93;;
63189;SDS011;49286;44.460;26.114;2022-09-09T09:18:57;14.65;;;6.03;;
63189;SDS011;49286;44.460;26.114;2022-09-09T09:21:43;11.27;;;6.57;;
63189;SDS011;49286;44.460;26.114;2022-09-09T09:24:19;9.70;;;5.30;;
63189;SDS011;49286;44.460;26.114;2022-09-09T09:26:47;13.38;;;6.00;;
63189;SDS011;49286;44.460;26.114;2022-09-09T09:29:14;14.70;;;5.70;;
63189;SDS011;49286;44.460;26.114;2022-09-09T09:31:51;9.30;;;5.40;;
63189;SDS011;49286;44.460;26.114;2022-09-09T09:34:20;11.27;;;6.78;;
63189;SDS011;49286;44.460;26.114;2022-09-09T09:36:51;10.48;;;5.65;;
63189;SDS011;49286;44.460;26.114;2022-09-09T09:39:30;14.27;;;5.68;;
63189;SDS011;49286;44.460;26.114;2022-09-09T09:42:09;11.25;;;4.85;;
63189;SDS011;49286;44.460;26.114;2022-09-09T09:44:39;12.82;;;8.40;;
63189;SDS011;49286;44.460;26.114;2022-09-09T09:49:38;12.85;;;4.75;;
63189;SDS011;49286;44.460;26.114;2022-09-09T09:52:05;17.70;;;5.68;;
63189;SDS011;49286;44.460;26.114;2022-09-09T09:54:33;9.88;;;5.20;;
63189;SDS011;49286;44.460;26.114;2022-09-09T09:57:16;18.73;;;5.68;;
63189;SDS011;49286;44.460;26.114;2022-09-09T09:59:43;8.30;;;4.57;;
63189;SDS011;49286;44.460;26.114;2022-09-09T10:02:20;8.43;;;5.20;;
63189;SDS011;49286;44.460;26.114;2022-09-09T10:04:46;17.13;;;6.10;;
63189;SDS011;49286;44.460;26.114;2022-09-09T10:07:19;7.32;;;5.25;;
63189;SDS011;49286;44.460;26.114;2022-09-09T10:09:51;15.55;;;5.25;;
63189;SDS011;49286;44.460;26.114;2022-09-09T10:20:54;11.93;;;5.18;;
63189;SDS011;49286;44.460;26.114;2022-09-09T10:41:12;9.68;;;5.60;;
63189;SDS011;49286;44.460;26.114;2022-09-09T10:52:42;12.18;;;5.22;;
63189;SDS011;49286;44.460;26.114;2022-09-09T10:55:20;10.88;;;5.15;;
63189;SDS011;49286;44.460;26.114;2022-09-09T10:57:51;12.52;;;4.88;;
63189;SDS011;49286;44.460;26.114;2022-09-09T11:00:22;10.55;;;4.82;;
63189;SDS011;49286;44.460;26.114;2022-09-09T11:02:55;9.15;;;4.90;;
63189;SDS011;49286;44.460;26.114;2022-09-09T11:08:05;8.02;;;5.05;;
63189;SDS011;49286;44.460;26.114;2022-09-09T11:13:18;13.10;;;5.97;;
63189;SDS011;49286;44.460;26.114;2022-09-09T11:15:57;9.52;;;5.35;;
63189;SDS011;49286;44.460;26.114;2022-09-09T11:18:29;12.43;;;5.57;;
63189;SDS011;49286;44.460;26.114;2022-09-09T11:21:01;20.23;;;5.68;;
63189;SDS011;49286;44.460;26.114;2022-09-09T11:23:46;9.60;;;5.60;;
63189;SDS011;49286;44.460;26.114;2022-09-09T11:26:18;11.45;;;4.43;;
63189;SDS011;49286;44.460;26.114;2022-09-09T11:29:44;7.75;;;4.68;;
63189;SDS011;49286;44.460;26.114;2022-09-09T11:32:01;13.70;;;5.97;;
63189;SDS011;49286;44.460;26.114;2022-09-09T11:44:38;12.27;;;9.20;;
63189;SDS011;49286;44.460;26.114;2022-09-09T11:47:15;9.82;;;5.53;;
63189;SDS011;49286;44.460;26.114;2022-09-09T11:49:51;9.60;;;5.40;;
63189;SDS011;49286;44.460;26.114;2022-09-09T11:52:22;9.05;;;5.30;;
63189;SDS011;49286;44.460;26.114;2022-09-09T11:54:50;13.98;;;4.45;;
63189;SDS011;49286;44.460;26.114;2022-09-09T11:57:27;13.38;;;5.18;;
63189;SDS011;49286;44.460;26.114;2022-09-09T11:59:58;16.30;;;6.38;;
63189;SDS011;49286;44.460;26.114;2022-09-09T12:02:26;13.90;;;5.88;;
63189;SDS011;49286;44.460;26.114;2022-09-09T12:05:01;23.17;;;5.47;;
63189;SDS011;49286;44.460;26.114;2022-09-09T12:07:40;9.65;;;5.30;;
63189;SDS011;49286;44.460;26.114;2022-09-09T12:15:51;11.40;;;5.15;;
63189;SDS011;49286;44.460;26.114;2022-09-09T12:18:25;10.88;;;4.35;;
63189;SDS011;49286;44.460;26.114;2022-09-09T12:36:52;5.35;;;4.38;;
63189;SDS011;49286;44.460;26.114;2022-09-09T12:41:52;19.92;;;6.00;;
63189;SDS011;49286;44.460;26.114;2022-09-09T12:44:23;6.20;;;3.85;;
63189;SDS011;49286;44.460;26.114;2022-09-09T12:46:49;13.90;;;4.85;;
63189;SDS011;49286;44.460;26.114;2022-09-09T12:49:35;14.32;;;4.80;;
63189;SDS011;49286;44.460;26.114;2022-09-09T12:52:08;15.38;;;4.80;;
63189;SDS011;49286;44.460;26.114;2022-09-09T12:54:44;8.43;;;4.60;;
63189;SDS011;49286;44.460;26.114;2022-09-09T12:57:16;6.18;;;4.03;;
63189;SDS011;49286;44.460;26.114;2022-09-09T12:59:43;9.07;;;5.10;;
63189;SDS011;49286;44.460;26.114;2022-09-09T13:02:20;9.05;;;4.50;;
63189;SDS011;49286;44.460;26.114;2022-09-09T13:04:48;5.78;;;4.25;;
63189;SDS011;49286;44.460;26.114;2022-09-09T13:07:21;9.82;;;4.45;;
63189;SDS011;49286;44.460;26.114;2022-09-09T13:09:47;12.98;;;4.68;;
63189;SDS011;49286;44.460;26.114;2022-09-09T13:12:15;17.77;;;4.95;;
63189;SDS011;49286;44.460;26.114;2022-09-09T13:14:44;11.48;;;4.40;;
63189;SDS011;49286;44.460;26.114;2022-09-09T13:17:20;10.88;;;5.20;;
63189;SDS011;49286;44.460;26.114;2022-09-09T13:19:48;10.38;;;5.63;;
63189;SDS011;49286;44.460;26.114;2022-09-09T13:22:21;20.98;;;7.05;;
63189;SDS011;49286;44.460;26.114;2022-09-09T13:24:47;8.65;;;5.45;;
63189;SDS011;49286;44.460;26.114;2022-09-09T13:27:36;7.68;;;5.15;;
63189;SDS011;49286;44.460;26.114;2022-09-09T13:30:22;16.40;;;6.10;;
63189;SDS011;49286;44.460;26.114;2022-09-09T13:41:19;8.32;;;5.97;;
63189;SDS011;49286;44.460;26.114;2022-09-09T13:43:48;8.83;;;6.33;;
63189;SDS011;49286;44.460;26.114;2022-09-09T13:48:55;7.10;;;4.25;;
63189;SDS011;49286;44.460;26.114;2022-09-09T13:51:30;8.82;;;5.63;;
63189;SDS011;49286;44.460;26.114;2022-09-09T13:54:00;9.20;;;5.88;;
63189;SDS011;49286;44.460;26.114;2022-09-09T13:56:26;23.83;;;5.90;;
63189;SDS011;49286;44.460;26.114;2022-09-09T13:58:52;11.60;;;6.78;;
63189;SDS011;49286;44.460;26.114;2022-09-09T14:01:19;7.85;;;5.60;;
63189;SDS011;49286;44.460;26.114;2022-09-09T14:03:44;23.77;;;6.10;;
63189;SDS011;49286;44.460;26.114;2022-09-09T14:06:10;25.15;;;6.90;;
63189;SDS011;49286;44.460;26.114;2022-09-09T14:08:36;7.07;;;5.25;;
63189;SDS011;49286;44.460;26.114;2022-09-09T14:11:03;26.25;;;6.82;;
63189;SDS011;49286;44.460;26.114;2022-09-09T14:13:29;10.02;;;6.57;;
63189;SDS011;49286;44.460;26.114;2022-09-09T14:15:54;15.95;;;6.05;;
63189;SDS011;49286;44.460;26.114;2022-09-09T14:18:20;19.17;;;6.07;;
63189;SDS011;49286;44.460;26.114;2022-09-09T14:20:47;10.13;;;5.43;;
63189;SDS011;49286;44.460;26.114;2022-09-09T14:23:13;14.98;;;6.18;;
63189;SDS011;49286;44.460;26.114;2022-09-09T14:25:48;10.77;;;5.65;;
63189;SDS011;49286;44.460;26.114;2022-09-09T14:28:14;19.02;;;6.18;;
63189;SDS011;49286;44.460;26.114;2022-09-09T14:30:40;10.40;;;5.57;;
63189;SDS011;49286;44.460;26.114;2022-09-09T14:33:07;14.60;;;5.40;;
63189;SDS011;49286;44.460;26.114;2022-09-09T14:35:34;14.23;;;5.90;;
63189;SDS011;49286;44.460;26.114;2022-09-09T14:38:01;7.43;;;6.03;;
63189;SDS011;49286;44.460;26.114;2022-09-09T14:40:27;19.45;;;6.15;;
63189;SDS011;49286;44.460;26.114;2022-09-09T14:42:53;8.48;;;4.95;;
63189;SDS011;49286;44.460;26.114;2022-09-09T14:45:19;12.32;;;5.25;;
63189;SDS011;49286;44.460;26.114;2022-09-09T14:47:46;10.80;;;5.20;;
63189;SDS011;49286;44.460;26.114;2022-09-09T14:50:12;10.50;;;5.40;;
63189;SDS011;49286;44.460;26.114;2022-09-09T14:52:37;10.38;;;5.25;;
63189;SDS011;49286;44.460;26.114;2022-09-09T14:55:04;14.63;;;6.13;;
63189;SDS011;49286;44.460;26.114;2022-09-09T14:57:30;21.63;;;6.88;;
63189;SDS011;49286;44.460;26.114;2022-09-09T14:59:56;14.80;;;5.43;;
63189;SDS011;49286;44.460;26.114;2022-09-09T15:02:21;12.13;;;5.60;;
63189;SDS011;49286;44.460;26.114;2022-09-09T15:04:47;16.20;;;6.47;;
63189;SDS011;49286;44.460;26.114;2022-09-09T15:07:14;9.93;;;5.05;;
63189;SDS011;49286;44.460;26.114;2022-09-09T15:09:41;20.45;;;5.95;;
63189;SDS011;49286;44.460;26.114;2022-09-09T15:12:07;19.38;;;6.38;;
63189;SDS011;49286;44.460;26.114;2022-09-09T15:14:33;12.40;;;6.47;;
63189;SDS011;49286;44.460;26.114;2022-09-09T15:17:00;22.00;;;6.35;;
63189;SDS011;49286;44.460;26.114;2022-09-09T15:19:26;13.32;;;7.00;;
63189;SDS011;49286;44.460;26.114;2022-09-09T15:21:51;12.45;;;6.28;;
63189;SDS011;49286;44.460;26.114;2022-09-09T15:24:17;14.68;;;7.80;;
63189;SDS011;49286;44.460;26.114;2022-09-09T15:26:42;11.98;;;5.82;;
63189;SDS011;49286;44.460;26.114;2022-09-09T15:29:08;20.70;;;6.22;;
63189;SDS011;49286;44.460;26.114;2022-09-09T15:31:34;10.40;;;5.05;;
63189;SDS011;49286;44.460;26.114;2022-09-09T15:34:00;7.75;;;5.60;;
63189;SDS011;49286;44.460;26.114;2022-09-09T15:36:28;9.18;;;5.30;;
63189;SDS011;49286;44.460;26.114;2022-09-09T15:39:02;12.00;;;6.53;;
63189;SDS011;49286;44.460;26.114;2022-09-09T15:41:29;8.40;;;5.40;;
63189;SDS011;49286;44.460;26.114;2022-09-09T15:43:57;17.60;;;6.72;;
63189;SDS011;49286;44.460;26.114;2022-09-09T15:46:27;12.52;;;6.60;;
63189;SDS011;49286;44.460;26.114;2022-09-09T15:48:53;12.38;;;6.22;;
63189;SDS011;49286;44.460;26.114;2022-09-09T15:51:30;11.68;;;6.22;;
63189;SDS011;49286;44.460;26.114;2022-09-09T15:53:56;11.68;;;6.15;;
63189;SDS011;49286;44.460;26.114;2022-09-09T15:56:23;11.35;;;6.13;;
63189;SDS011;49286;44.460;26.114;2022-09-09T16:01:22;13.50;;;6.20;;
63189;SDS011;49286;44.460;26.114;2022-09-09T16:03:48;9.50;;;5.30;;
63189;SDS011;49286;44.460;26.114;2022-09-09T16:06:17;10.20;;;5.63;;
63189;SDS011;49286;44.460;26.114;2022-09-09T16:08:46;10.35;;;6.03;;
63189;SDS011;49286;44.460;26.114;2022-09-09T16:11:16;14.20;;;5.72;;
63189;SDS011;49286;44.460;26.114;2022-09-09T16:13:45;10.35;;;6.47;;
63189;SDS011;49286;44.460;26.114;2022-09-09T16:16:11;9.63;;;5.82;;
63189;SDS011;49286;44.460;26.114;2022-09-09T16:18:45;9.30;;;5.35;;
63189;SDS011;49286;44.460;26.114;2022-09-09T16:21:16;10.40;;;5.90;;
63189;SDS011;49286;44.460;26.114;2022-09-09T16:23:46;6.95;;;5.30;;
63189;SDS011;49286;44.460;26.114;2022-09-09T16:26:14;16.90;;;5.68;;
63189;SDS011;49286;44.460;26.114;2022-09-09T16:28:41;10.15;;;6.55;;
63189;SDS011;49286;44.460;26.114;2022-09-09T16:31:08;12.18;;;6.03;;
63189;SDS011;49286;44.460;26.114;2022-09-09T16:33:54;11.73;;;7.30;;
63189;SDS011;49286;44.460;26.114;2022-09-09T16:36:21;22.98;;;6.57;;
63189;SDS011;49286;44.460;26.114;2022-09-09T16:38:55;27.00;;;7.60;;
63189;SDS011;49286;44.460;26.114;2022-09-09T16:41:26;9.70;;;6.78;;
63189;SDS011;49286;44.460;26.114;2022-09-09T16:43:57;15.32;;;6.95;;
63189;SDS011;49286;44.460;26.114;2022-09-09T16:46:24;12.05;;;6.60;;
63189;SDS011;49286;44.460;26.114;2022-09-09T16:48:52;11.38;;;6.32;;
63189;SDS011;49286;44.460;26.114;2022-09-09T16:53:49;11.68;;;6.13;;
63189;SDS011;49286;44.460;26.114;2022-09-09T16:56:17;9.02;;;6.03;;
63189;SDS011;49286;44.460;26.114;2022-09-09T16:58:49;17.67;;;7.28;;
63189;SDS011;49286;44.460;26.114;2022-09-09T17:01:20;15.13;;;7.25;;
63189;SDS011;49286;44.460;26.114;2022-09-09T17:03:45;10.00;;;6.00;;
63189;SDS011;49286;44.460;26.114;2022-09-09T17:06:11;12.15;;;6.55;;
63189;SDS011;49286;44.460;26.114;2022-09-09T17:08:39;12.98;;;7.55;;
63189;SDS011;49286;44.460;26.114;2022-09-09T17:11:16;24.00;;;7.15;;
63189;SDS011;49286;44.460;26.114;2022-09-09T17:13:43;6.78;;;5.90;;